sensor_id;sensor_type;location;lat;lon;timestamp;temperature;humidity
20288;DHT22;10303;51.960;8.372;2023-04-24T00:00:29;15.20;99.90
20288;DHT22;10303;51.960;8.372;2023-04-24T00:02:55;15.30;99.90
20288;DHT22;10303;51.960;8.372;2023-04-24T00:05:22;15.30;99.90
20288;DHT22;10303;51.960;8.372;2023-04-24T00:07:49;15.30;99.90
20288;DHT22;10303;51.960;8.372;2023-04-24T00:10:18;15.30;99.90
20288;DHT22;10303;51.960;8.372;2023-04-24T00:12:44;15.30;99.90
20288;DHT22;10303;51.960;8.372;2023-04-24T00:15:12;15.30;99.90
20288;DHT22;10303;51.960;8.372;2023-04-24T00:17:38;15.30;99.90
20288;DHT22;10303;51.960;8.372;2023-04-24T00:20:05;15.30;99.90
20288;DHT22;10303;51.960;8.372;2023-04-24T00:22:32;15.30;99.90
20288;DHT22;10303;51.960;8.372;2023-04-24T00:24:59;15.30;99.90
20288;DHT22;10303;51.960;8.372;2023-04-24T00:27:25;15.30;99.90
20288;DHT22;10303;51.960;8.372;2023-04-24T00:29:51;15.30;99.90
20288;DHT22;10303;51.960;8.372;2023-04-24T00:32:17;15.30;99.90
20288;DHT22;10303;51.960;8.372;2023-04-24T00:34:43;15.20;99.90
20288;DHT22;10303;51.960;8.372;2023-04-24T00:37:09;15.30;99.90
20288;DHT22;10303;51.960;8.372;2023-04-24T00:39:36;15.20;99.90
20288;DHT22;10303;51.960;8.372;2023-04-24T00:42:02;15.20;99.90
20288;DHT22;10303;51.960;8.372;2023-04-24T00:44:28;15.20;99.90
20288;DHT22;10303;51.960;8.372;2023-04-24T00:46:55;15.10;99.90
20288;DHT22;10303;51.960;8.372;2023-04-24T00:49:22;15.10;99.90
20288;DHT22;10303;51.960;8.372;2023-04-24T00:51:48;15.20;99.90
20288;DHT22;10303;51.960;8.372;2023-04-24T00:54:15;15.10;99.90
20288;DHT22;10303;51.960;8.372;2023-04-24T00:56:42;15.10;99.90
20288;DHT22;10303;51.960;8.372;2023-04-24T00:59:09;15.20;99.90
20288;DHT22;10303;51.960;8.372;2023-04-24T01:01:40;15.10;99.90
20288;DHT22;10303;51.960;8.372;2023-04-24T01:04:09;15.20;99.90
20288;DHT22;10303;51.960;8.372;2023-04-24T01:06:38;15.10;99.90
20288;DHT22;10303;51.960;8.372;2023-04-24T01:09:05;15.20;99.90
20288;DHT22;10303;51.960;8.372;2023-04-24T01:11:36;15.10;99.90
20288;DHT22;10303;51.960;8.372;2023-04-24T01:14:04;15.10;99.90
20288;DHT22;10303;51.960;8.372;2023-04-24T01:16:30;15.10;99.90
20288;DHT22;10303;51.960;8.372;2023-04-24T01:18:56;15.20;99.90
20288;DHT22;10303;51.960;8.372;2023-04-24T01:21:23;15.10;99.90
20288;DHT22;10303;51.960;8.372;2023-04-24T01:23:56;15.00;99.90
20288;DHT22;10303;51.960;8.372;2023-04-24T01:26:23;15.10;99.90
20288;DHT22;10303;51.960;8.372;2023-04-24T01:28:51;15.10;99.90
20288;DHT22;10303;51.960;8.372;2023-04-24T01:31:18;15.10;99.90
20288;DHT22;10303;51.960;8.372;2023-04-24T01:33:44;15.10;99.90
20288;DHT22;10303;51.960;8.372;2023-04-24T01:36:11;15.10;99.90
20288;DHT22;10303;51.960;8.372;2023-04-24T01:38:37;15.10;99.90
20288;DHT22;10303;51.960;8.372;2023-04-24T01:41:03;15.10;99.90
20288;DHT22;10303;51.960;8.372;2023-04-24T01:43:29;15.00;99.90
20288;DHT22;10303;51.960;8.372;2023-04-24T01:45:57;15.00;99.90
20288;DHT22;10303;51.960;8.372;2023-04-24T01:48:23;15.00;99.90
20288;DHT22;10303;51.960;8.372;2023-04-24T01:50:49;15.00;99.90
20288;DHT22;10303;51.960;8.372;2023-04-24T01:53:15;14.90;99.90
20288;DHT22;10303;51.960;8.372;2023-04-24T01:55:42;14.80;99.90
20288;DHT22;10303;51.960;8.372;2023-04-24T01:58:08;14.80;99.90
20288;DHT22;10303;51.960;8.372;2023-04-24T02:00:34;14.80;99.90
20288;DHT22;10303;51.960;8.372;2023-04-24T02:03:00;14.70;99.90
20288;DHT22;10303;51.960;8.372;2023-04-24T02:05:27;14.70;99.90
20288;DHT22;10303;51.960;8.372;2023-04-24T02:07:54;14.60;99.90
20288;DHT22;10303;51.960;8.372;2023-04-24T02:10:21;14.70;99.90
20288;DHT22;10303;51.960;8.372;2023-04-24T02:12:47;14.60;99.90
20288;DHT22;10303;51.960;8.372;2023-04-24T02:15:14;14.60;99.90
20288;DHT22;10303;51.960;8.372;2023-04-24T02:17:40;14.60;99.90
20288;DHT22;10303;51.960;8.372;2023-04-24T02:20:07;14.60;99.90
20288;DHT22;10303;51.960;8.372;2023-04-24T02:22:33;14.50;99.90
20288;DHT22;10303;51.960;8.372;2023-04-24T02:25:01;14.50;99.90
20288;DHT22;10303;51.960;8.372;2023-04-24T02:27:27;14.50;99.90
20288;DHT22;10303;51.960;8.372;2023-04-24T02:29:53;14.40;99.90
20288;DHT22;10303;51.960;8.372;2023-04-24T02:32:19;14.40;99.90
20288;DHT22;10303;51.960;8.372;2023-04-24T02:34:45;14.30;99.90
20288;DHT22;10303;51.960;8.372;2023-04-24T02:37:11;14.30;99.90
20288;DHT22;10303;51.960;8.372;2023-04-24T02:39:37;14.30;99.90
20288;DHT22;10303;51.960;8.372;2023-04-24T02:42:04;14.30;99.90
20288;DHT22;10303;51.960;8.372;2023-04-24T02:44:30;14.30;99.90
20288;DHT22;10303;51.960;8.372;2023-04-24T02:46:56;14.20;99.90
20288;DHT22;10303;51.960;8.372;2023-04-24T02:49:22;14.20;99.90
20288;DHT22;10303;51.960;8.372;2023-04-24T02:51:48;14.20;99.90
20288;DHT22;10303;51.960;8.372;2023-04-24T02:54:14;14.20;99.90
20288;DHT22;10303;51.960;8.372;2023-04-24T02:56:40;14.20;99.90
20288;DHT22;10303;51.960;8.372;2023-04-24T02:59:07;14.20;99.90
20288;DHT22;10303;51.960;8.372;2023-04-24T03:01:34;14.20;99.90
20288;DHT22;10303;51.960;8.372;2023-04-24T03:04:00;14.10;99.90
20288;DHT22;10303;51.960;8.372;2023-04-24T03:06:26;14.20;99.90
20288;DHT22;10303;51.960;8.372;2023-04-24T03:08:52;14.10;99.90
20288;DHT22;10303;51.960;8.372;2023-04-24T03:11:19;14.10;99.90
20288;DHT22;10303;51.960;8.372;2023-04-24T03:13:45;14.10;99.90
20288;DHT22;10303;51.960;8.372;2023-04-24T03:16:11;14.10;99.90
20288;DHT22;10303;51.960;8.372;2023-04-24T03:18:37;14.10;99.90
20288;DHT22;10303;51.960;8.372;2023-04-24T03:21:05;14.20;99.90
20288;DHT22;10303;51.960;8.372;2023-04-24T03:23:31;14.20;99.90
20288;DHT22;10303;51.960;8.372;2023-04-24T03:25:57;14.20;99.90
20288;DHT22;10303;51.960;8.372;2023-04-24T03:28:24;14.20;99.90
20288;DHT22;10303;51.960;8.372;2023-04-24T03:31:08;14.20;99.90
20288;DHT22;10303;51.960;8.372;2023-04-24T03:33:36;14.20;99.90
20288;DHT22;10303;51.960;8.372;2023-04-24T03:36:02;14.20;99.90
20288;DHT22;10303;51.960;8.372;2023-04-24T03:38:36;14.20;99.90
20288;DHT22;10303;51.960;8.372;2023-04-24T03:41:24;14.20;99.90
20288;DHT22;10303;51.960;8.372;2023-04-24T03:43:57;14.20;99.90
20288;DHT22;10303;51.960;8.372;2023-04-24T03:46:24;14.10;99.90
20288;DHT22;10303;51.960;8.372;2023-04-24T03:48:54;14.20;99.90
20288;DHT22;10303;51.960;8.372;2023-04-24T03:51:25;14.20;99.90
20288;DHT22;10303;51.960;8.372;2023-04-24T03:53:55;14.20;99.90
20288;DHT22;10303;51.960;8.372;2023-04-24T03:56:23;14.20;99.90
20288;DHT22;10303;51.960;8.372;2023-04-24T03:58:49;14.20;99.90
20288;DHT22;10303;51.960;8.372;2023-04-24T04:01:15;14.20;99.90
20288;DHT22;10303;51.960;8.372;2023-04-24T04:04:01;14.10;99.90
20288;DHT22;10303;51.960;8.372;2023-04-24T04:06:29;14.10;99.90
20288;DHT22;10303;51.960;8.372;2023-04-24T04:08:58;14.10;99.90
20288;DHT22;10303;51.960;8.372;2023-04-24T04:11:26;14.10;99.90
20288;DHT22;10303;51.960;8.372;2023-04-24T04:13:52;14.10;99.90
20288;DHT22;10303;51.960;8.372;2023-04-24T04:16:20;14.10;99.90
20288;DHT22;10303;51.960;8.372;2023-04-24T04:18:48;14.00;99.90
20288;DHT22;10303;51.960;8.372;2023-04-24T04:21:15;14.10;99.90
20288;DHT22;10303;51.960;8.372;2023-04-24T04:23:42;14.00;99.90
20288;DHT22;10303;51.960;8.372;2023-04-24T04:26:21;14.10;99.90
20288;DHT22;10303;51.960;8.372;2023-04-24T04:29:11;14.00;99.90
20288;DHT22;10303;51.960;8.372;2023-04-24T04:31:41;14.00;99.90
20288;DHT22;10303;51.960;8.372;2023-04-24T04:34:11;13.90;99.90
20288;DHT22;10303;51.960;8.372;2023-04-24T04:36:38;13.90;99.90
20288;DHT22;10303;51.960;8.372;2023-04-24T04:39:23;13.80;99.90
20288;DHT22;10303;51.960;8.372;2023-04-24T04:42:05;13.70;99.90
20288;DHT22;10303;51.960;8.372;2023-04-24T04:44:39;13.50;99.90
20288;DHT22;10303;51.960;8.372;2023-04-24T04:47:09;12.90;99.90
20288;DHT22;10303;51.960;8.372;2023-04-24T04:49:38;12.90;99.90
20288;DHT22;10303;51.960;8.372;2023-04-24T04:52:09;12.90;99.90
20288;DHT22;10303;51.960;8.372;2023-04-24T04:54:35;13.00;99.90
20288;DHT22;10303;51.960;8.372;2023-04-24T04:57:02;13.10;99.90
20288;DHT22;10303;51.960;8.372;2023-04-24T04:59:28;13.20;99.90
20288;DHT22;10303;51.960;8.372;2023-04-24T05:02:00;13.20;99.90
20288;DHT22;10303;51.960;8.372;2023-04-24T05:04:27;13.20;99.90
20288;DHT22;10303;51.960;8.372;2023-04-24T05:06:53;13.30;99.90
20288;DHT22;10303;51.960;8.372;2023-04-24T05:09:20;13.30;99.90
20288;DHT22;10303;51.960;8.372;2023-04-24T05:11:51;13.30;99.90
20288;DHT22;10303;51.960;8.372;2023-04-24T05:14:17;13.30;99.90
20288;DHT22;10303;51.960;8.372;2023-04-24T05:16:44;13.30;99.90
20288;DHT22;10303;51.960;8.372;2023-04-24T05:19:12;13.30;99.90
20288;DHT22;10303;51.960;8.372;2023-04-24T05:21:40;13.30;99.90
20288;DHT22;10303;51.960;8.372;2023-04-24T05:24:08;13.40;99.90
20288;DHT22;10303;51.960;8.372;2023-04-24T05:27:00;13.40;99.90
20288;DHT22;10303;51.960;8.372;2023-04-24T05:29:33;13.40;99.90
20288;DHT22;10303;51.960;8.372;2023-04-24T05:32:00;13.40;99.90
20288;DHT22;10303;51.960;8.372;2023-04-24T05:34:28;13.40;99.90
20288;DHT22;10303;51.960;8.372;2023-04-24T05:36:56;13.50;99.90
20288;DHT22;10303;51.960;8.372;2023-04-24T05:39:23;13.40;99.90
20288;DHT22;10303;51.960;8.372;2023-04-24T05:41:51;13.40;99.90
20288;DHT22;10303;51.960;8.372;2023-04-24T05:44:17;13.50;99.90
20288;DHT22;10303;51.960;8.372;2023-04-24T05:46:43;13.50;99.90
20288;DHT22;10303;51.960;8.372;2023-04-24T05:49:10;13.50;99.90
20288;DHT22;10303;51.960;8.372;2023-04-24T05:51:37;13.50;99.90
20288;DHT22;10303;51.960;8.372;2023-04-24T05:54:05;13.50;99.90
20288;DHT22;10303;51.960;8.372;2023-04-24T05:56:31;13.60;99.90
20288;DHT22;10303;51.960;8.372;2023-04-24T05:58:58;13.60;99.90
20288;DHT22;10303;51.960;8.372;2023-04-24T06:01:24;13.60;99.90
20288;DHT22;10303;51.960;8.372;2023-04-24T06:04:00;13.60;99.90
20288;DHT22;10303;51.960;8.372;2023-04-24T06:06:26;13.60;99.90
20288;DHT22;10303;51.960;8.372;2023-04-24T06:08:53;13.60;99.90
20288;DHT22;10303;51.960;8.372;2023-04-24T06:11:19;13.60;99.90
20288;DHT22;10303;51.960;8.372;2023-04-24T06:13:45;13.60;99.90
20288;DHT22;10303;51.960;8.372;2023-04-24T06:16:43;13.70;99.90
20288;DHT22;10303;51.960;8.372;2023-04-24T06:19:19;13.70;99.90
20288;DHT22;10303;51.960;8.372;2023-04-24T06:21:46;13.70;99.90
20288;DHT22;10303;51.960;8.372;2023-04-24T06:24:14;13.70;99.90
20288;DHT22;10303;51.960;8.372;2023-04-24T06:26:42;13.70;99.90
20288;DHT22;10303;51.960;8.372;2023-04-24T06:29:08;13.60;99.90
20288;DHT22;10303;51.960;8.372;2023-04-24T06:31:35;13.60;99.90
20288;DHT22;10303;51.960;8.372;2023-04-24T06:34:03;13.70;99.90
20288;DHT22;10303;51.960;8.372;2023-04-24T06:36:29;13.70;99.90
20288;DHT22;10303;51.960;8.372;2023-04-24T06:38:56;13.70;99.90
20288;DHT22;10303;51.960;8.372;2023-04-24T06:41:23;13.70;99.90
20288;DHT22;10303;51.960;8.372;2023-04-24T06:43:49;13.70;99.90
20288;DHT22;10303;51.960;8.372;2023-04-24T06:46:14;13.80;99.90
20288;DHT22;10303;51.960;8.372;2023-04-24T06:48:40;13.80;99.90
20288;DHT22;10303;51.960;8.372;2023-04-24T06:51:06;13.80;99.90
20288;DHT22;10303;51.960;8.372;2023-04-24T06:53:32;13.80;99.90
20288;DHT22;10303;51.960;8.372;2023-04-24T06:55:58;13.80;99.90
20288;DHT22;10303;51.960;8.372;2023-04-24T06:58:25;13.80;99.90
20288;DHT22;10303;51.960;8.372;2023-04-24T07:00:51;13.80;99.90
20288;DHT22;10303;51.960;8.372;2023-04-24T07:03:17;13.90;99.90
20288;DHT22;10303;51.960;8.372;2023-04-24T07:05:43;13.80;99.90
20288;DHT22;10303;51.960;8.372;2023-04-24T07:08:09;13.80;99.90
20288;DHT22;10303;51.960;8.372;2023-04-24T07:10:36;13.80;99.90
20288;DHT22;10303;51.960;8.372;2023-04-24T07:13:02;13.70;99.90
20288;DHT22;10303;51.960;8.372;2023-04-24T07:15:29;13.80;99.90
20288;DHT22;10303;51.960;8.372;2023-04-24T07:17:55;13.80;99.90
20288;DHT22;10303;51.960;8.372;2023-04-24T07:20:21;13.70;99.90
20288;DHT22;10303;51.960;8.372;2023-04-24T07:22:48;13.80;99.90
20288;DHT22;10303;51.960;8.372;2023-04-24T07:25:14;13.70;99.90
20288;DHT22;10303;51.960;8.372;2023-04-24T07:27:40;13.70;99.90
20288;DHT22;10303;51.960;8.372;2023-04-24T07:30:07;13.70;99.90
20288;DHT22;10303;51.960;8.372;2023-04-24T07:32:33;13.70;99.90
20288;DHT22;10303;51.960;8.372;2023-04-24T07:34:59;13.70;99.90
20288;DHT22;10303;51.960;8.372;2023-04-24T07:37:25;13.70;99.90
20288;DHT22;10303;51.960;8.372;2023-04-24T07:39:51;13.70;99.90
20288;DHT22;10303;51.960;8.372;2023-04-24T07:42:17;13.60;99.90
20288;DHT22;10303;51.960;8.372;2023-04-24T07:44:43;13.60;99.90
20288;DHT22;10303;51.960;8.372;2023-04-24T07:47:09;13.60;99.90
20288;DHT22;10303;51.960;8.372;2023-04-24T07:49:35;13.60;99.90
20288;DHT22;10303;51.960;8.372;2023-04-24T07:52:01;13.70;99.90
20288;DHT22;10303;51.960;8.372;2023-04-24T07:54:28;13.70;99.90
20288;DHT22;10303;51.960;8.372;2023-04-24T07:56:54;13.80;99.90
20288;DHT22;10303;51.960;8.372;2023-04-24T07:59:20;13.80;99.90
20288;DHT22;10303;51.960;8.372;2023-04-24T08:01:46;13.90;99.90
20288;DHT22;10303;51.960;8.372;2023-04-24T08:04:12;13.90;99.90
20288;DHT22;10303;51.960;8.372;2023-04-24T08:06:38;13.90;99.90
20288;DHT22;10303;51.960;8.372;2023-04-24T08:09:04;13.90;99.90
20288;DHT22;10303;51.960;8.372;2023-04-24T08:11:30;13.80;99.90
20288;DHT22;10303;51.960;8.372;2023-04-24T08:13:57;13.80;99.90
20288;DHT22;10303;51.960;8.372;2023-04-24T08:16:23;13.80;99.90
20288;DHT22;10303;51.960;8.372;2023-04-24T08:18:50;13.60;99.90
20288;DHT22;10303;51.960;8.372;2023-04-24T08:21:16;13.60;99.90
20288;DHT22;10303;51.960;8.372;2023-04-24T08:23:44;13.70;99.90
20288;DHT22;10303;51.960;8.372;2023-04-24T08:26:12;13.80;99.90
20288;DHT22;10303;51.960;8.372;2023-04-24T08:28:38;13.80;99.90
20288;DHT22;10303;51.960;8.372;2023-04-24T08:31:05;13.90;99.90
20288;DHT22;10303;51.960;8.372;2023-04-24T08:33:31;13.90;99.90
20288;DHT22;10303;51.960;8.372;2023-04-24T08:36:04;13.90;99.90
20288;DHT22;10303;51.960;8.372;2023-04-24T08:38:31;13.90;99.90
20288;DHT22;10303;51.960;8.372;2023-04-24T08:40:59;13.90;99.90
20288;DHT22;10303;51.960;8.372;2023-04-24T08:43:26;13.90;99.90
20288;DHT22;10303;51.960;8.372;2023-04-24T08:45:55;13.90;99.90
20288;DHT22;10303;51.960;8.372;2023-04-24T08:48:22;13.90;99.90
20288;DHT22;10303;51.960;8.372;2023-04-24T08:50:50;13.90;99.90
20288;DHT22;10303;51.960;8.372;2023-04-24T08:53:18;13.90;99.90
20288;DHT22;10303;51.960;8.372;2023-04-24T08:55:47;13.90;99.90
20288;DHT22;10303;51.960;8.372;2023-04-24T08:58:16;13.80;99.90
20288;DHT22;10303;51.960;8.372;2023-04-24T09:00:43;13.80;99.90
20288;DHT22;10303;51.960;8.372;2023-04-24T09:03:16;13.80;99.90
20288;DHT22;10303;51.960;8.372;2023-04-24T09:05:43;13.70;99.90
20288;DHT22;10303;51.960;8.372;2023-04-24T09:08:13;13.70;99.90
20288;DHT22;10303;51.960;8.372;2023-04-24T09:10:40;13.70;99.90
20288;DHT22;10303;51.960;8.372;2023-04-24T09:13:06;13.70;99.90
20288;DHT22;10303;51.960;8.372;2023-04-24T09:15:36;13.60;99.90
20288;DHT22;10303;51.960;8.372;2023-04-24T09:18:04;13.70;99.90
20288;DHT22;10303;51.960;8.372;2023-04-24T09:20:31;13.70;99.90
20288;DHT22;10303;51.960;8.372;2023-04-24T09:22:57;13.60;99.90
20288;DHT22;10303;51.960;8.372;2023-04-24T09:25:34;13.70;99.90
20288;DHT22;10303;51.960;8.372;2023-04-24T09:28:04;13.80;99.90
20288;DHT22;10303;51.960;8.372;2023-04-24T09:30:32;13.70;99.90
20288;DHT22;10303;51.960;8.372;2023-04-24T09:33:14;13.70;99.90
20288;DHT22;10303;51.960;8.372;2023-04-24T09:35:42;13.70;99.90
20288;DHT22;10303;51.960;8.372;2023-04-24T09:38:11;13.60;99.90
20288;DHT22;10303;51.960;8.372;2023-04-24T09:40:37;13.70;99.90
20288;DHT22;10303;51.960;8.372;2023-04-24T09:43:03;13.70;99.90
20288;DHT22;10303;51.960;8.372;2023-04-24T09:45:39;13.70;99.90
20288;DHT22;10303;51.960;8.372;2023-04-24T09:48:09;13.70;99.90
20288;DHT22;10303;51.960;8.372;2023-04-24T09:50:35;13.80;99.90
20288;DHT22;10303;51.960;8.372;2023-04-24T09:53:03;13.70;99.90
20288;DHT22;10303;51.960;8.372;2023-04-24T09:55:30;13.70;99.90
20288;DHT22;10303;51.960;8.372;2023-04-24T09:57:58;13.80;99.90
20288;DHT22;10303;51.960;8.372;2023-04-24T10:00:32;13.60;99.90
20288;DHT22;10303;51.960;8.372;2023-04-24T10:02:59;13.50;99.90
20288;DHT22;10303;51.960;8.372;2023-04-24T10:05:31;13.50;99.90
20288;DHT22;10303;51.960;8.372;2023-04-24T10:08:06;13.50;99.90
20288;DHT22;10303;51.960;8.372;2023-04-24T10:10:55;13.40;99.90
20288;DHT22;10303;51.960;8.372;2023-04-24T10:13:21;13.40;99.90
20288;DHT22;10303;51.960;8.372;2023-04-24T10:15:48;13.50;99.90
20288;DHT22;10303;51.960;8.372;2023-04-24T10:18:15;13.50;99.90
20288;DHT22;10303;51.960;8.372;2023-04-24T10:20:42;13.50;99.90
20288;DHT22;10303;51.960;8.372;2023-04-24T10:23:08;13.60;99.90
20288;DHT22;10303;51.960;8.372;2023-04-24T10:25:35;13.60;99.90
20288;DHT22;10303;51.960;8.372;2023-04-24T10:28:06;13.60;99.90
20288;DHT22;10303;51.960;8.372;2023-04-24T10:30:35;13.60;99.90
20288;DHT22;10303;51.960;8.372;2023-04-24T10:33:06;13.60;99.90
20288;DHT22;10303;51.960;8.372;2023-04-24T10:35:43;13.60;99.90
20288;DHT22;10303;51.960;8.372;2023-04-24T10:38:22;13.50;99.90
20288;DHT22;10303;51.960;8.372;2023-04-24T10:40:50;13.40;99.90
20288;DHT22;10303;51.960;8.372;2023-04-24T10:43:17;13.30;99.90
20288;DHT22;10303;51.960;8.372;2023-04-24T10:46:01;13.20;99.90
20288;DHT22;10303;51.960;8.372;2023-04-24T10:48:28;13.20;99.90
20288;DHT22;10303;51.960;8.372;2023-04-24T10:50:55;13.20;99.90
20288;DHT22;10303;51.960;8.372;2023-04-24T10:53:27;13.20;99.90
20288;DHT22;10303;51.960;8.372;2023-04-24T10:58:42;13.20;99.90
20288;DHT22;10303;51.960;8.372;2023-04-24T11:01:28;13.10;99.90
20288;DHT22;10303;51.960;8.372;2023-04-24T11:04:01;13.10;99.90
20288;DHT22;10303;51.960;8.372;2023-04-24T11:06:37;13.10;99.90
20288;DHT22;10303;51.960;8.372;2023-04-24T11:09:08;13.10;99.90
20288;DHT22;10303;51.960;8.372;2023-04-24T11:11:38;13.10;99.90
20288;DHT22;10303;51.960;8.372;2023-04-24T11:14:14;13.00;99.90
20288;DHT22;10303;51.960;8.372;2023-04-24T11:16:54;12.90;99.90
20288;DHT22;10303;51.960;8.372;2023-04-24T11:19:24;12.80;99.90
20288;DHT22;10303;51.960;8.372;2023-04-24T11:29:46;12.00;99.90
20288;DHT22;10303;51.960;8.372;2023-04-24T11:35:02;12.30;99.90
20288;DHT22;10303;51.960;8.372;2023-04-24T11:37:39;12.20;99.90
20288;DHT22;10303;51.960;8.372;2023-04-24T11:40:08;12.30;99.90
20288;DHT22;10303;51.960;8.372;2023-04-24T11:42:38;12.10;99.90
20288;DHT22;10303;51.960;8.372;2023-04-24T11:47:40;12.00;99.90
20288;DHT22;10303;51.960;8.372;2023-04-24T11:50:09;12.20;99.90
20288;DHT22;10303;51.960;8.372;2023-04-24T11:52:41;12.20;99.90
20288;DHT22;10303;51.960;8.372;2023-04-24T11:55:29;11.30;99.90
20288;DHT22;10303;51.960;8.372;2023-04-24T11:57:57;11.10;99.90
20288;DHT22;10303;51.960;8.372;2023-04-24T12:00:26;11.00;99.90
20288;DHT22;10303;51.960;8.372;2023-04-24T12:03:07;10.10;99.90
20288;DHT22;10303;51.960;8.372;2023-04-24T12:05:35;10.00;99.90
20288;DHT22;10303;51.960;8.372;2023-04-24T12:08:01;9.70;99.90
20288;DHT22;10303;51.960;8.372;2023-04-24T12:10:29;9.80;99.90
20288;DHT22;10303;51.960;8.372;2023-04-24T12:12:57;9.60;99.90
20288;DHT22;10303;51.960;8.372;2023-04-24T12:15:25;9.50;99.90
20288;DHT22;10303;51.960;8.372;2023-04-24T12:17:53;9.70;99.90
20288;DHT22;10303;51.960;8.372;2023-04-24T12:20:28;9.50;99.90
20288;DHT22;10303;51.960;8.372;2023-04-24T12:22:58;9.60;99.90
20288;DHT22;10303;51.960;8.372;2023-04-24T12:25:28;9.60;99.90
20288;DHT22;10303;51.960;8.372;2023-04-24T12:30:35;9.70;99.90
20288;DHT22;10303;51.960;8.372;2023-04-24T12:33:05;9.80;99.90
20288;DHT22;10303;51.960;8.372;2023-04-24T12:35:33;10.00;99.90
20288;DHT22;10303;51.960;8.372;2023-04-24T12:38:11;10.30;99.90
20288;DHT22;10303;51.960;8.372;2023-04-24T12:40:40;10.50;99.90
20288;DHT22;10303;51.960;8.372;2023-04-24T12:43:14;10.40;99.90
20288;DHT22;10303;51.960;8.372;2023-04-24T12:45:44;10.60;99.90
20288;DHT22;10303;51.960;8.372;2023-04-24T12:48:11;10.50;99.90
20288;DHT22;10303;51.960;8.372;2023-04-24T12:50:39;10.50;99.90
20288;DHT22;10303;51.960;8.372;2023-04-24T12:53:07;10.80;99.90
20288;DHT22;10303;51.960;8.372;2023-04-24T12:55:34;11.00;99.90
20288;DHT22;10303;51.960;8.372;2023-04-24T12:58:00;10.80;99.90
20288;DHT22;10303;51.960;8.372;2023-04-24T13:00:27;11.10;99.90
20288;DHT22;10303;51.960;8.372;2023-04-24T13:02:53;11.20;99.90
20288;DHT22;10303;51.960;8.372;2023-04-24T13:05:20;11.00;99.90
20288;DHT22;10303;51.960;8.372;2023-04-24T13:07:46;10.50;99.90
20288;DHT22;10303;51.960;8.372;2023-04-24T13:10:12;10.40;99.90
20288;DHT22;10303;51.960;8.372;2023-04-24T13:12:39;10.30;99.90
20288;DHT22;10303;51.960;8.372;2023-04-24T13:15:06;9.90;99.90
20288;DHT22;10303;51.960;8.372;2023-04-24T13:17:32;10.10;99.90
20288;DHT22;10303;51.960;8.372;2023-04-24T13:19:59;10.30;99.90
20288;DHT22;10303;51.960;8.372;2023-04-24T13:22:25;10.00;99.90
20288;DHT22;10303;51.960;8.372;2023-04-24T13:24:51;10.10;99.90
20288;DHT22;10303;51.960;8.372;2023-04-24T13:27:17;10.10;99.90
20288;DHT22;10303;51.960;8.372;2023-04-24T13:29:44;10.00;99.90
20288;DHT22;10303;51.960;8.372;2023-04-24T13:32:10;9.70;99.90
20288;DHT22;10303;51.960;8.372;2023-04-24T13:34:36;10.00;99.90
20288;DHT22;10303;51.960;8.372;2023-04-24T13:37:02;10.10;99.90
20288;DHT22;10303;51.960;8.372;2023-04-24T13:39:29;10.10;99.90
20288;DHT22;10303;51.960;8.372;2023-04-24T13:41:55;10.20;99.90
20288;DHT22;10303;51.960;8.372;2023-04-24T13:44:22;10.30;99.90
20288;DHT22;10303;51.960;8.372;2023-04-24T13:46:51;10.20;99.90
20288;DHT22;10303;51.960;8.372;2023-04-24T13:49:20;10.40;99.90
20288;DHT22;10303;51.960;8.372;2023-04-24T13:51:48;10.70;99.90
20288;DHT22;10303;51.960;8.372;2023-04-24T13:54:14;10.50;99.90
20288;DHT22;10303;51.960;8.372;2023-04-24T13:56:40;10.40;99.90
20288;DHT22;10303;51.960;8.372;2023-04-24T13:59:06;10.50;99.90
20288;DHT22;10303;51.960;8.372;2023-04-24T14:01:32;10.60;99.90
20288;DHT22;10303;51.960;8.372;2023-04-24T14:03:58;10.50;99.90
20288;DHT22;10303;51.960;8.372;2023-04-24T14:06:25;10.60;99.90
20288;DHT22;10303;51.960;8.372;2023-04-24T14:08:51;10.80;99.90
20288;DHT22;10303;51.960;8.372;2023-04-24T14:11:18;10.90;99.90
20288;DHT22;10303;51.960;8.372;2023-04-24T14:13:46;11.10;99.90
20288;DHT22;10303;51.960;8.372;2023-04-24T14:16:13;11.10;99.90
20288;DHT22;10303;51.960;8.372;2023-04-24T14:18:40;10.90;99.90
20288;DHT22;10303;51.960;8.372;2023-04-24T14:21:06;11.10;99.90
20288;DHT22;10303;51.960;8.372;2023-04-24T14:23:32;10.60;99.90
20288;DHT22;10303;51.960;8.372;2023-04-24T14:25:58;10.80;99.90
20288;DHT22;10303;51.960;8.372;2023-04-24T14:28:25;10.90;99.90
20288;DHT22;10303;51.960;8.372;2023-04-24T14:30:52;11.00;99.90
20288;DHT22;10303;51.960;8.372;2023-04-24T14:33:18;11.40;99.90
20288;DHT22;10303;51.960;8.372;2023-04-24T14:35:44;11.40;99.90
20288;DHT22;10303;51.960;8.372;2023-04-24T14:38:11;11.60;99.90
20288;DHT22;10303;51.960;8.372;2023-04-24T14:40:37;11.40;99.90
20288;DHT22;10303;51.960;8.372;2023-04-24T14:43:03;11.40;99.90
20288;DHT22;10303;51.960;8.372;2023-04-24T14:45:30;11.20;99.90
20288;DHT22;10303;51.960;8.372;2023-04-24T14:47:56;11.30;99.90
20288;DHT22;10303;51.960;8.372;2023-04-24T14:50:23;11.60;99.90
20288;DHT22;10303;51.960;8.372;2023-04-24T14:52:53;11.50;99.90
20288;DHT22;10303;51.960;8.372;2023-04-24T14:55:20;11.60;99.90
20288;DHT22;10303;51.960;8.372;2023-04-24T14:57:46;11.30;99.90
20288;DHT22;10303;51.960;8.372;2023-04-24T15:00:13;11.40;99.90
20288;DHT22;10303;51.960;8.372;2023-04-24T15:02:39;11.10;99.90
20288;DHT22;10303;51.960;8.372;2023-04-24T15:05:07;11.20;99.90
20288;DHT22;10303;51.960;8.372;2023-04-24T15:07:34;11.10;99.90
20288;DHT22;10303;51.960;8.372;2023-04-24T15:10:02;11.00;99.90
20288;DHT22;10303;51.960;8.372;2023-04-24T15:12:29;10.80;99.90
20288;DHT22;10303;51.960;8.372;2023-04-24T15:14:55;10.70;99.90
20288;DHT22;10303;51.960;8.372;2023-04-24T15:17:21;11.10;99.90
20288;DHT22;10303;51.960;8.372;2023-04-24T15:19:47;11.10;99.90
20288;DHT22;10303;51.960;8.372;2023-04-24T15:22:13;10.70;99.90
20288;DHT22;10303;51.960;8.372;2023-04-24T15:24:39;10.80;99.90
20288;DHT22;10303;51.960;8.372;2023-04-24T15:27:09;10.40;99.90
20288;DHT22;10303;51.960;8.372;2023-04-24T15:29:36;10.50;99.90
20288;DHT22;10303;51.960;8.372;2023-04-24T15:32:02;10.10;99.90
20288;DHT22;10303;51.960;8.372;2023-04-24T15:34:28;10.20;99.90
20288;DHT22;10303;51.960;8.372;2023-04-24T15:36:54;10.20;99.90
20288;DHT22;10303;51.960;8.372;2023-04-24T15:39:24;10.50;99.90
20288;DHT22;10303;51.960;8.372;2023-04-24T15:41:50;10.70;99.90
20288;DHT22;10303;51.960;8.372;2023-04-24T15:44:17;10.70;99.90
20288;DHT22;10303;51.960;8.372;2023-04-24T15:46:43;10.50;99.90
20288;DHT22;10303;51.960;8.372;2023-04-24T15:49:09;10.60;99.90
20288;DHT22;10303;51.960;8.372;2023-04-24T15:51:36;10.80;99.90
20288;DHT22;10303;51.960;8.372;2023-04-24T15:54:02;10.60;99.90
20288;DHT22;10303;51.960;8.372;2023-04-24T15:56:28;10.80;99.90